Time;durP1;ratioP1;P1;durP2;ratioP2;P2;SDS_P1;SDS_P2;PMS_P1;PMS_P2;Temp;Humidity;BMP_temperature;BMP_pressure;BME280_temperature;BME280_humidity;BME280_pressure;Samples;Min_cycle;Max_cycle;Signal;HPM_P1;HPM_P2
2022/12/13 00:01:13;;;;;;;;;;;-1.90;99.90;;;;;;5044974;28;19968;-64
2022/12/13 00:03:39;;;;;;;;;;;-2.00;99.90;;;;;;5029550;28;19925;-66
2022/12/13 00:06:09;;;;;;;;;;;-2.10;99.90;;;;;;5011861;28;20335;-64
2022/12/13 00:08:35;;;;;;;;;;;-2.10;99.90;;;;;;5029688;28;19925;-64
2022/12/13 00:11:02;;;;;;;;;;;-2.10;99.90;;;;;;5043667;28;19925;-64
2022/12/13 00:13:27;;;;;;;;;;;-2.00;99.90;;;;;;5029373;28;19940;-65
2022/12/13 00:16:00;;;;;;;;;;;-2.10;99.90;;;;;;5028848;28;19925;-65
2022/12/13 00:18:26;;;;;;;;;;;-2.10;99.90;;;;;;4995470;28;19937;-65
2022/12/13 00:20:52;;;;;;;;;;;-2.10;99.90;;;;;;5011652;28;20272;-65
2022/12/13 00:23:19;;;;;;;;;;;-2.10;99.90;;;;;;5029313;28;19974;-64
2022/12/13 00:25:44;;;;;;;;;;;-2.10;99.90;;;;;;5029180;28;19925;-69
2022/12/13 00:28:10;;;;;;;;;;;-2.10;99.90;;;;;;5044540;28;20028;-65
2022/12/13 00:30:36;;;;;;;;;;;-2.20;99.90;;;;;;5044905;28;20378;-65
2022/12/13 00:33:02;;;;;;;;;;;-2.20;99.90;;;;;;5028925;28;19925;-64
2022/12/13 00:35:27;;;;;;;;;;;-2.20;99.90;;;;;;5029174;28;19929;-64
2022/12/13 00:37:53;;;;;;;;;;;-2.10;99.90;;;;;;5044817;28;20020;-74
2022/12/13 00:40:20;;;;;;;;;;;-1.90;99.90;;;;;;5044641;28;19925;-65
2022/12/13 00:42:45;;;;;;;;;;;-2.20;99.90;;;;;;5044129;28;19952;-65
2022/12/13 00:45:11;;;;;;;;;;;-1.90;99.90;;;;;;5028493;28;19925;-64
2022/12/13 00:47:37;;;;;;;;;;;-2.20;99.90;;;;;;5028808;28;19993;-67
2022/12/13 00:50:03;;;;;;;;;;;-2.10;99.90;;;;;;5028482;28;20016;-65
2022/12/13 00:52:29;;;;;;;;;;;-2.20;99.90;;;;;;5028669;28;19929;-64
2022/12/13 00:54:54;;;;;;;;;;;-2.20;99.90;;;;;;5028560;28;19925;-79
2022/12/13 00:57:20;;;;;;;;;;;-2.30;99.90;;;;;;5028867;28;19933;-66
2022/12/13 00:59:46;;;;;;;;;;;-2.20;99.90;;;;;;5044627;28;20339;-70
2022/12/13 01:02:11;;;;;;;;;;;-1.90;99.90;;;;;;5044447;28;19932;-64
2022/12/13 01:04:37;;;;;;;;;;;-2.30;99.90;;;;;;5028899;28;19932;-64
2022/12/13 01:07:03;;;;;;;;;;;-2.00;99.90;;;;;;5028720;28;19925;-63
2022/12/13 01:09:31;;;;;;;;;;;-1.80;99.90;;;;;;5027361;28;19939;-64
2022/12/13 01:12:04;;;;;;;;;;;-2.30;99.90;;;;;;5028570;28;19926;-76
2022/12/13 01:14:30;;;;;;;;;;;-2.30;99.90;;;;;;5028262;28;19925;-64
2022/12/13 01:16:55;;;;;;;;;;;-2.30;99.90;;;;;;5010428;28;19933;-68
2022/12/13 01:19:22;;;;;;;;;;;-2.30;99.90;;;;;;5043161;27;19933;-64
2022/12/13 01:21:47;;;;;;;;;;;-2.30;99.90;;;;;;5045063;28;19926;-65
2022/12/13 01:24:14;;;;;;;;;;;-2.40;99.90;;;;;;5031308;28;20393;-64
2022/12/13 01:26:40;;;;;;;;;;;-2.30;99.90;;;;;;5047634;27;20285;-63
2022/12/13 01:29:05;;;;;;;;;;;-2.40;99.90;;;;;;5031266;28;19929;-63
2022/12/13 01:31:31;;;;;;;;;;;-2.30;99.90;;;;;;5030808;28;19925;-64
2022/12/13 01:33:57;;;;;;;;;;;-2.30;99.90;;;;;;5013912;28;20271;-64
2022/12/13 01:36:22;;;;;;;;;;;-2.40;99.90;;;;;;5046653;28;19925;-65
2022/12/13 01:38:48;;;;;;;;;;;-2.40;99.90;;;;;;5046931;28;19932;-63
2022/12/13 01:41:15;;;;;;;;;;;-1.80;99.90;;;;;;5031094;28;19925;-63
2022/12/13 01:43:40;;;;;;;;;;;-2.40;99.90;;;;;;5047135;28;19925;-63
2022/12/13 01:46:06;;;;;;;;;;;-1.80;99.90;;;;;;5031141;28;19985;-63
2022/12/13 01:48:34;;;;;;;;;;;-2.40;99.90;;;;;;5031771;28;19933;-63
2022/12/13 01:51:02;;;;;;;;;;;-2.40;99.90;;;;;;5031263;28;20274;-64
2022/12/13 01:53:29;;;;;;;;;;;-2.40;99.90;;;;;;5031353;28;19925;-63
2022/12/13 01:56:05;;;;;;;;;;;-2.50;99.90;;;;;;5031419;28;20024;-63
2022/12/13 01:58:31;;;;;;;;;;;-2.50;99.90;;;;;;5046949;28;19925;-63
2022/12/13 02:00:57;;;;;;;;;;;-2.50;99.90;;;;;;5031320;28;20012;-66
2022/12/13 02:03:23;;;;;;;;;;;-2.50;99.90;;;;;;5030775;28;19925;-64
2022/12/13 02:05:56;;;;;;;;;;;-2.50;99.90;;;;;;5046970;28;20279;-63
2022/12/13 02:08:23;;;;;;;;;;;-2.60;99.90;;;;;;5046171;28;19973;-63
2022/12/13 02:10:48;;;;;;;;;;;-2.50;99.90;;;;;;5031237;28;19925;-63
2022/12/13 02:13:14;;;;;;;;;;;-2.50;99.90;;;;;;5030862;28;19925;-62
2022/12/13 02:15:46;;;;;;;;;;;-2.50;99.90;;;;;;5031825;28;19925;-67
2022/12/13 02:18:14;;;;;;;;;;;-2.50;99.90;;;;;;5031454;28;19925;-63
2022/12/13 02:20:52;;;;;;;;;;;-2.50;99.90;;;;;;5046661;28;20286;-63
2022/12/13 02:23:24;;;;;;;;;;;-2.50;99.90;;;;;;5047089;28;19925;-63
2022/12/13 02:26:02;;;;;;;;;;;-2.50;99.90;;;;;;5031503;28;19932;-65
2022/12/13 02:28:34;;;;;;;;;;;-2.50;99.90;;;;;;5045949;28;19973;-64
2022/12/13 02:31:08;;;;;;;;;;;-2.50;99.90;;;;;;5030737;28;19925;-64
2022/12/13 02:33:39;;;;;;;;;;;-2.50;99.90;;;;;;5029642;28;19929;-64
2022/12/13 02:36:11;;;;;;;;;;;-2.50;99.90;;;;;;5030506;28;19925;-64
2022/12/13 02:38:41;;;;;;;;;;;-2.50;99.90;;;;;;5046388;28;20286;-63
2022/12/13 02:41:07;;;;;;;;;;;-2.50;99.90;;;;;;5030686;28;19978;-67
2022/12/13 02:43:56;;;;;;;;;;;-1.90;99.90;;;;;;5030353;28;19976;-64
2022/12/13 02:46:24;;;;;;;;;;;-2.50;99.90;;;;;;5037905;28;19925;-66
2022/12/13 02:48:51;;;;;;;;;;;-2.50;99.90;;;;;;5046336;28;19990;-67
2022/12/13 02:51:18;;;;;;;;;;;-2.50;99.90;;;;;;5012131;28;20378;-63
2022/12/13 02:53:44;;;;;;;;;;;-2.50;99.90;;;;;;5030606;28;19932;-64
2022/12/13 02:56:09;;;;;;;;;;;-2.50;99.90;;;;;;5030253;28;19925;-64
2022/12/13 02:58:39;;;;;;;;;;;-2.50;99.90;;;;;;5029299;28;19929;-63
2022/12/13 03:01:23;;;;;;;;;;;-2.60;99.90;;;;;;5030045;28;19932;-63
2022/12/13 03:03:52;;;;;;;;;;;-2.50;99.90;;;;;;5045836;28;19932;-63
2022/12/13 03:06:36;;;;;;;;;;;-2.60;99.90;;;;;;5029877;28;20012;-63
2022/12/13 03:09:23;;;;;;;;;;;-2.50;99.90;;;;;;5012202;28;19925;-63
2022/12/13 03:14:38;;;;;;;;;;;-2.50;99.90;;;;;;5045257;28;19936;-63
2022/12/13 03:17:05;;;;;;;;;;;-2.50;99.90;;;;;;5029582;28;19925;-62
2022/12/13 03:19:31;;;;;;;;;;;-2.40;99.90;;;;;;5011738;28;20346;-64
2022/12/13 03:21:57;;;;;;;;;;;-2.60;99.90;;;;;;5029996;28;19971;-62
2022/12/13 03:24:22;;;;;;;;;;;-2.60;99.90;;;;;;5029786;28;19929;-63
2022/12/13 03:26:48;;;;;;;;;;;-2.60;99.90;;;;;;5028923;28;19925;-63
2022/12/13 03:29:14;;;;;;;;;;;-2.10;99.90;;;;;;5012160;28;19932;-64
2022/12/13 03:31:40;;;;;;;;;;;-2.60;99.90;;;;;;5044730;28;19925;-63
2022/12/13 03:34:05;;;;;;;;;;;-2.60;99.90;;;;;;5029886;28;19991;-63
2022/12/13 03:36:31;;;;;;;;;;;-2.60;99.90;;;;;;5044401;28;20418;-63
2022/12/13 03:38:57;;;;;;;;;;;-2.60;99.90;;;;;;5029542;28;19925;-63
2022/12/13 03:41:30;;;;;;;;;;;-2.60;99.90;;;;;;5028996;28;19931;-63
2022/12/13 03:43:56;;;;;;;;;;;-2.60;99.90;;;;;;5029361;28;19940;-62
2022/12/13 03:46:21;;;;;;;;;;;-2.60;99.90;;;;;;5011375;28;19929;-63
2022/12/13 03:48:47;;;;;;;;;;;-2.70;99.90;;;;;;5044952;28;19925;-66
2022/12/13 03:51:12;;;;;;;;;;;-2.70;99.90;;;;;;5029593;28;19925;-63
2022/12/13 03:53:38;;;;;;;;;;;-2.70;99.90;;;;;;5028956;28;20304;-63
2022/12/13 03:56:05;;;;;;;;;;;-2.70;99.90;;;;;;5029332;28;20004;-64
2022/12/13 03:58:31;;;;;;;;;;;-2.70;99.90;;;;;;5044570;28;19940;-62
2022/12/13 04:00:56;;;;;;;;;;;-2.70;99.90;;;;;;5029449;28;20263;-65
2022/12/13 04:03:22;;;;;;;;;;;-2.30;99.90;;;;;;5029018;28;19925;-67
2022/12/13 04:05:47;;;;;;;;;;;-2.70;99.90;;;;;;5044342;28;20284;-67
2022/12/13 04:08:13;;;;;;;;;;;-2.70;99.90;;;;;;5044822;28;19933;-64
2022/12/13 04:10:38;;;;;;;;;;;-2.10;99.90;;;;;;5029106;28;20005;-63
2022/12/13 04:15:48;;;;;;;;;;;-2.70;99.90;;;;;;5029265;28;19978;-64
2022/12/13 04:18:15;;;;;;;;;;;-2.80;99.90;;;;;;5044694;28;19926;-63
2022/12/13 04:20:41;;;;;;;;;;;-2.70;99.90;;;;;;5028875;28;19951;-63
2022/12/13 04:23:06;;;;;;;;;;;-2.70;99.90;;;;;;5029383;28;20365;-62
2022/12/13 04:25:32;;;;;;;;;;;-2.70;99.90;;;;;;5043979;28;19968;-63
2022/12/13 04:27:57;;;;;;;;;;;-2.70;99.90;;;;;;5011589;28;20290;-63
2022/12/13 04:30:23;;;;;;;;;;;-2.80;99.90;;;;;;5029006;28;19925;-64
2022/12/13 04:32:48;;;;;;;;;;;-2.70;99.90;;;;;;5028681;28;20230;-64
2022/12/13 04:35:14;;;;;;;;;;;-2.20;99.90;;;;;;5028506;28;19994;-62
2022/12/13 04:37:40;;;;;;;;;;;-2.80;99.90;;;;;;5044220;28;19925;-62
2022/12/13 04:40:06;;;;;;;;;;;-2.80;99.90;;;;;;5028862;28;20297;-63
2022/12/13 04:42:31;;;;;;;;;;;-2.70;99.90;;;;;;5028556;28;19925;-64
2022/12/13 04:44:57;;;;;;;;;;;-2.80;99.90;;;;;;5028632;28;20309;-63
2022/12/13 04:47:22;;;;;;;;;;;-2.80;99.90;;;;;;5044019;28;20019;-62
2022/12/13 04:49:48;;;;;;;;;;;-2.80;99.90;;;;;;5028147;28;20069;-64
2022/12/13 04:52:13;;;;;;;;;;;-2.80;99.90;;;;;;5028556;28;19977;-62
2022/12/13 04:54:39;;;;;;;;;;;-2.80;99.90;;;;;;5027466;28;19948;-65
2022/12/13 04:57:06;;;;;;;;;;;-2.80;99.90;;;;;;5029840;28;19951;-64
2022/12/13 04:59:32;;;;;;;;;;;-2.80;99.90;;;;;;5047510;28;20034;-63
2022/12/13 05:01:57;;;;;;;;;;;-2.80;99.90;;;;;;5031245;28;19975;-62
2022/12/13 05:04:23;;;;;;;;;;;-2.80;99.90;;;;;;5047462;28;19932;-63
2022/12/13 05:06:48;;;;;;;;;;;-2.80;99.90;;;;;;5047066;28;20005;-63
2022/12/13 05:09:14;;;;;;;;;;;-2.80;99.90;;;;;;5032072;27;20013;-63
2022/12/13 05:11:39;;;;;;;;;;;-2.80;99.90;;;;;;5031451;28;19925;-67
2022/12/13 05:14:05;;;;;;;;;;;-2.60;99.90;;;;;;5047160;28;19928;-63
2022/12/13 05:16:30;;;;;;;;;;;-2.80;99.90;;;;;;5047194;28;20282;-67
2022/12/13 05:18:56;;;;;;;;;;;-2.30;99.90;;;;;;5031141;28;20016;-63
2022/12/13 05:21:22;;;;;;;;;;;-2.80;99.90;;;;;;5032017;28;19955;-62
2022/12/13 05:23:47;;;;;;;;;;;-2.80;99.90;;;;;;5013725;28;20278;-63
2022/12/13 05:26:13;;;;;;;;;;;-2.80;99.90;;;;;;5047373;28;20415;-63
2022/12/13 05:28:38;;;;;;;;;;;-2.80;99.90;;;;;;5046712;28;19925;-63
2022/12/13 05:31:08;;;;;;;;;;;-2.90;99.90;;;;;;5064023;28;19982;-63
2022/12/13 05:33:34;;;;;;;;;;;-2.80;99.90;;;;;;5031597;28;19933;-67
2022/12/13 05:36:00;;;;;;;;;;;-2.60;99.90;;;;;;5031182;28;19925;-63
2022/12/13 05:38:25;;;;;;;;;;;-2.90;99.90;;;;;;5030298;28;19937;-64
2022/12/13 05:40:51;;;;;;;;;;;-2.60;99.90;;;;;;5013781;28;19925;-64
2022/12/13 05:43:16;;;;;;;;;;;-3.00;99.90;;;;;;5031573;28;20298;-64
2022/12/13 05:45:42;;;;;;;;;;;-3.00;99.90;;;;;;5029715;28;19956;-64
2022/12/13 05:48:09;;;;;;;;;;;-3.00;99.90;;;;;;5013854;28;19925;-64
2022/12/13 05:50:35;;;;;;;;;;;-3.10;99.90;;;;;;5031087;28;19926;-64
2022/12/13 05:53:02;;;;;;;;;;;-3.10;99.90;;;;;;5046643;28;19948;-63
2022/12/13 05:55:28;;;;;;;;;;;-3.10;99.90;;;;;;5031240;28;19925;-62
2022/12/13 05:57:53;;;;;;;;;;;-3.10;99.90;;;;;;5030763;28;19932;-64
2022/12/13 06:00:19;;;;;;;;;;;-3.10;99.90;;;;;;5013567;28;20279;-63
2022/12/13 06:02:44;;;;;;;;;;;-3.20;99.90;;;;;;5030912;28;19925;-63
2022/12/13 06:05:10;;;;;;;;;;;-3.20;99.90;;;;;;5031109;28;19932;-63
2022/12/13 06:07:36;;;;;;;;;;;-3.30;99.90;;;;;;5046199;28;19925;-63
2022/12/13 06:10:02;;;;;;;;;;;-3.30;99.90;;;;;;5045338;28;19948;-63
2022/12/13 06:12:28;;;;;;;;;;;-3.30;99.90;;;;;;5031128;28;20472;-63
2022/12/13 06:14:54;;;;;;;;;;;-3.30;99.90;;;;;;5030490;28;20016;-63
2022/12/13 06:17:23;;;;;;;;;;;-3.30;99.90;;;;;;5046468;28;20334;-63
2022/12/13 06:19:51;;;;;;;;;;;-3.30;99.90;;;;;;5012493;28;20279;-64
2022/12/13 06:22:17;;;;;;;;;;;-3.40;99.90;;;;;;5030831;28;20015;-64
2022/12/13 06:24:43;;;;;;;;;;;-3.40;99.90;;;;;;5030431;28;20028;-66
2022/12/13 06:27:08;;;;;;;;;;;-3.40;99.90;;;;;;5030735;28;20359;-63
2022/12/13 06:29:34;;;;;;;;;;;-3.40;99.90;;;;;;5030653;28;19925;-64
2022/12/13 06:32:01;;;;;;;;;;;-3.30;99.90;;;;;;5030237;28;19978;-63
2022/12/13 06:34:26;;;;;;;;;;;-3.30;99.90;;;;;;5030759;28;19973;-64
2022/12/13 06:36:52;;;;;;;;;;;-3.30;99.90;;;;;;5030286;28;19983;-63
2022/12/13 06:39:20;;;;;;;;;;;-3.30;99.90;;;;;;5045473;28;19976;-63
2022/12/13 06:41:46;;;;;;;;;;;-3.30;99.90;;;;;;5045866;28;19972;-63
2022/12/13 06:44:12;;;;;;;;;;;-3.20;99.90;;;;;;5029978;28;19933;-64
2022/12/13 06:46:37;;;;;;;;;;;-3.20;99.90;;;;;;5030571;28;19929;-64
2022/12/13 06:49:03;;;;;;;;;;;-3.10;99.90;;;;;;5029765;28;19936;-63
2022/12/13 06:51:29;;;;;;;;;;;-3.20;99.90;;;;;;5030408;28;19936;-63
2022/12/13 06:53:55;;;;;;;;;;;-3.20;99.90;;;;;;5045657;28;19936;-63
2022/12/13 06:56:21;;;;;;;;;;;-3.30;99.90;;;;;;5030146;28;19926;-65
2022/12/13 06:58:47;;;;;;;;;;;-3.20;99.90;;;;;;5029989;28;19925;-68
2022/12/13 07:01:17;;;;;;;;;;;-3.20;99.90;;;;;;5029801;28;19926;-63
2022/12/13 07:03:42;;;;;;;;;;;-3.20;99.90;;;;;;5045403;28;20019;-63
2022/12/13 07:06:08;;;;;;;;;;;-3.20;99.90;;;;;;5029683;28;20000;-63
2022/12/13 07:08:34;;;;;;;;;;;-3.10;99.90;;;;;;5030000;28;19931;-63
2022/12/13 07:11:01;;;;;;;;;;;-3.10;99.90;;;;;;5029626;28;19932;-63
2022/12/13 07:13:26;;;;;;;;;;;-3.10;99.90;;;;;;5030037;28;20419;-64
2022/12/13 07:15:52;;;;;;;;;;;-3.10;99.90;;;;;;5012046;28;19933;-64
2022/12/13 07:18:18;;;;;;;;;;;-3.10;99.90;;;;;;5029630;28;20298;-62
2022/12/13 07:20:43;;;;;;;;;;;-3.00;99.90;;;;;;5029138;28;19968;-62
2022/12/13 07:23:09;;;;;;;;;;;-3.00;99.90;;;;;;5044761;28;19920;-62
2022/12/13 07:25:35;;;;;;;;;;;-3.00;99.90;;;;;;5029471;28;19929;-64
2022/12/13 07:28:02;;;;;;;;;;;-3.00;99.90;;;;;;5029372;28;19947;-64
2022/12/13 07:30:29;;;;;;;;;;;-3.00;99.90;;;;;;5045186;28;19925;-64
2022/12/13 07:32:55;;;;;;;;;;;-3.00;99.90;;;;;;5029339;28;19925;-63
2022/12/13 07:35:20;;;;;;;;;;;-3.00;99.90;;;;;;5029525;28;20017;-63
2022/12/13 07:37:46;;;;;;;;;;;-3.00;99.90;;;;;;5044267;28;19974;-64
2022/12/13 07:40:11;;;;;;;;;;;-2.90;99.90;;;;;;5028837;28;19921;-64
2022/12/13 07:42:37;;;;;;;;;;;-2.90;99.90;;;;;;5060974;28;20370;-64
2022/12/13 07:45:02;;;;;;;;;;;-2.90;99.90;;;;;;5029064;28;19925;-63
2022/12/13 07:47:31;;;;;;;;;;;-3.00;99.90;;;;;;5044822;28;19976;-62
2022/12/13 07:49:57;;;;;;;;;;;-3.00;99.90;;;;;;5044785;28;19925;-63
2022/12/13 07:52:23;;;;;;;;;;;-3.00;99.90;;;;;;5028089;28;19936;-63
2022/12/13 07:54:48;;;;;;;;;;;-2.30;99.90;;;;;;5029249;28;19929;-64
2022/12/13 07:57:14;;;;;;;;;;;-2.90;99.90;;;;;;5028034;28;19921;-63
2022/12/13 07:59:40;;;;;;;;;;;-2.90;99.90;;;;;;5044901;28;20345;-63
2022/12/13 08:02:05;;;;;;;;;;;-2.90;99.90;;;;;;5028669;28;19974;-63
2022/12/13 08:04:31;;;;;;;;;;;-2.90;99.90;;;;;;5028845;28;19932;-64
2022/12/13 08:06:56;;;;;;;;;;;-2.90;99.90;;;;;;5027986;28;19926;-70
2022/12/13 08:09:22;;;;;;;;;;;-2.90;99.90;;;;;;5061579;28;20415;-65
2022/12/13 08:11:48;;;;;;;;;;;-2.40;99.90;;;;;;5044398;28;19933;-69
2022/12/13 08:14:13;;;;;;;;;;;-2.90;99.90;;;;;;5043748;28;19933;-69
2022/12/13 08:16:39;;;;;;;;;;;-2.90;99.90;;;;;;5029123;28;19972;-70
2022/12/13 08:19:05;;;;;;;;;;;-2.90;99.90;;;;;;5042384;28;20016;-73
2022/12/13 08:21:35;;;;;;;;;;;-2.90;99.90;;;;;;5024908;28;20251;-69
2022/12/13 08:24:01;;;;;;;;;;;-2.80;99.90;;;;;;4991353;28;19937;-73
2022/12/13 08:26:27;;;;;;;;;;;-2.40;99.90;;;;;;5026486;28;19925;-69
2022/12/13 08:28:52;;;;;;;;;;;-2.80;99.90;;;;;;5026802;28;19936;-71
2022/12/13 08:31:18;;;;;;;;;;;-2.70;99.90;;;;;;5008543;28;20541;-74
2022/12/13 08:33:45;;;;;;;;;;;-2.70;99.90;;;;;;5040121;28;20316;-72
2022/12/13 08:36:14;;;;;;;;;;;-2.70;99.90;;;;;;5006465;28;20468;-70
2022/12/13 08:38:40;;;;;;;;;;;-2.70;99.90;;;;;;5011437;28;19925;-69
2022/12/13 08:41:06;;;;;;;;;;;-2.60;99.90;;;;;;5042413;28;19983;-69
2022/12/13 08:43:32;;;;;;;;;;;-2.60;99.90;;;;;;5027385;28;19932;-70
2022/12/13 08:45:57;;;;;;;;;;;-2.60;99.90;;;;;;5028790;28;19986;-70
2022/12/13 08:48:23;;;;;;;;;;;-2.10;99.90;;;;;;5043754;28;20289;-69
2022/12/13 08:50:49;;;;;;;;;;;-1.90;99.90;;;;;;5025216;28;20012;-71
2022/12/13 08:53:14;;;;;;;;;;;-2.50;99.90;;;;;;5010399;28;19925;-70
2022/12/13 08:55:40;;;;;;;;;;;-2.40;99.90;;;;;;5027491;28;19932;-69
2022/12/13 08:58:07;;;;;;;;;;;-2.40;99.90;;;;;;5027030;28;20069;-70
2022/12/13 09:00:33;;;;;;;;;;;-1.90;99.90;;;;;;5009776;28;19925;-70
2022/12/13 09:02:59;;;;;;;;;;;-2.30;99.90;;;;;;5042476;28;19929;-70
2022/12/13 09:05:24;;;;;;;;;;;-2.30;99.90;;;;;;5041737;28;19926;-71
2022/12/13 09:07:57;;;;;;;;;;;-2.20;99.90;;;;;;5060553;28;19925;-71
2022/12/13 09:10:23;;;;;;;;;;;-2.30;99.90;;;;;;5042382;28;20159;-70
2022/12/13 09:12:49;;;;;;;;;;;-2.20;99.90;;;;;;5010700;28;19925;-69
2022/12/13 09:15:14;;;;;;;;;;;-2.10;99.90;;;;;;5027040;28;20535;-69
2022/12/13 09:17:40;;;;;;;;;;;-2.10;99.90;;;;;;5043583;28;19981;-69
2022/12/13 09:20:08;;;;;;;;;;;-2.10;99.90;;;;;;5059731;28;20289;-71
2022/12/13 09:22:34;;;;;;;;;;;-2.00;99.90;;;;;;5043682;28;19929;-70
2022/12/13 09:25:00;;;;;;;;;;;-2.00;99.90;;;;;;5043386;28;20344;-69
2022/12/13 09:27:26;;;;;;;;;;;-2.00;99.90;;;;;;5026482;28;20499;-69
2022/12/13 09:29:52;;;;;;;;;;;-1.60;99.90;;;;;;5043742;28;19925;-69
2022/12/13 09:32:17;;;;;;;;;;;-2.00;99.90;;;;;;5042353;28;19925;-72
2022/12/13 09:34:43;;;;;;;;;;;-1.90;99.90;;;;;;5057380;28;19972;-69
2022/12/13 09:37:10;;;;;;;;;;;-1.90;99.90;;;;;;5025277;28;20386;-68
2022/12/13 09:39:36;;;;;;;;;;;-1.90;99.90;;;;;;5041785;28;19929;-69
2022/12/13 09:42:02;;;;;;;;;;;-1.80;99.90;;;;;;5008836;28;20335;-69
2022/12/13 09:44:35;;;;;;;;;;;-1.80;99.90;;;;;;5029553;28;20065;-70
2022/12/13 09:47:08;;;;;;;;;;;-1.80;99.90;;;;;;5030575;28;19926;-68
2022/12/13 09:49:38;;;;;;;;;;;-1.50;99.90;;;;;;5046569;28;19925;-70
2022/12/13 09:52:06;;;;;;;;;;;-1.80;99.90;;;;;;5029724;28;19945;-70
2022/12/13 09:54:32;;;;;;;;;;;-1.30;99.90;;;;;;5046228;28;19936;-70
2022/12/13 09:56:58;;;;;;;;;;;-1.70;99.90;;;;;;5031325;28;19925;-69
2022/12/13 09:59:28;;;;;;;;;;;-1.70;99.90;;;;;;5046372;28;19932;-69
2022/12/13 10:01:54;;;;;;;;;;;-1.70;99.90;;;;;;5030161;28;19932;-70
2022/12/13 10:04:20;;;;;;;;;;;-1.70;99.90;;;;;;5046091;28;19925;-70
2022/12/13 10:06:49;;;;;;;;;;;-1.70;99.90;;;;;;5027972;28;20293;-70
2022/12/13 10:09:15;;;;;;;;;;;-1.70;99.90;;;;;;5045801;28;19954;-72
2022/12/13 10:11:51;;;;;;;;;;;-1.70;99.90;;;;;;5043927;28;19929;-72
2022/12/13 10:14:39;;;;;;;;;;;-1.70;99.90;;;;;;5029624;28;20454;-71
2022/12/13 10:17:06;;;;;;;;;;;-1.70;99.90;;;;;;5028868;28;19925;-70
2022/12/13 10:19:39;;;;;;;;;;;-1.60;99.90;;;;;;5011478;28;20253;-72
2022/12/13 10:22:07;;;;;;;;;;;-1.60;99.90;;;;;;5028845;28;19933;-69
2022/12/13 10:24:52;;;;;;;;;;;-1.50;99.90;;;;;;5029336;28;19974;-68
2022/12/13 10:27:39;;;;;;;;;;;-1.50;99.90;;;;;;5045903;28;19970;-69
2022/12/13 10:30:09;;;;;;;;;;;-1.50;99.90;;;;;;5029723;28;20376;-69
2022/12/13 10:32:54;;;;;;;;;;;-1.50;99.90;;;;;;5045073;28;19925;-68
2022/12/13 10:35:28;;;;;;;;;;;-1.40;99.90;;;;;;5028010;28;19925;-68
2022/12/13 10:37:54;;;;;;;;;;;-1.30;99.90;;;;;;5030073;28;19925;-68
2022/12/13 10:40:23;;;;;;;;;;;-1.30;99.90;;;;;;5028392;28;20503;-68
2022/12/13 10:43:10;;;;;;;;;;;-1.30;99.90;;;;;;5044538;28;19925;-69
2022/12/13 10:45:36;;;;;;;;;;;-1.20;99.90;;;;;;5043484;28;19995;-69
2022/12/13 10:48:02;;;;;;;;;;;-1.20;99.90;;;;;;5026338;28;20025;-71
2022/12/13 10:50:28;;;;;;;;;;;-1.20;99.90;;;;;;5027797;28;20400;-69
2022/12/13 10:52:55;;;;;;;;;;;-1.00;99.90;;;;;;5025537;28;19988;-69
2022/12/13 10:55:33;;;;;;;;;;;-1.00;99.90;;;;;;5044443;28;19925;-69
2022/12/13 10:58:08;;;;;;;;;;;-1.00;99.90;;;;;;5045776;28;20345;-69
2022/12/13 11:00:43;;;;;;;;;;;-0.90;99.90;;;;;;5012720;28;19936;-69
2022/12/13 11:03:11;;;;;;;;;;;-0.90;99.90;;;;;;5046045;28;19929;-68
2022/12/13 11:05:37;;;;;;;;;;;-0.80;99.90;;;;;;4995661;28;20584;-69
2022/12/13 11:08:25;;;;;;;;;;;-0.70;99.90;;;;;;5028965;28;20350;-70
2022/12/13 11:10:58;;;;;;;;;;;-0.80;99.90;;;;;;5012990;28;20445;-69
2022/12/13 11:13:35;;;;;;;;;;;-0.60;99.90;;;;;;5029717;28;20028;-68
2022/12/13 11:16:01;;;;;;;;;;;-0.60;99.90;;;;;;5029674;28;20062;-69
2022/12/13 11:18:29;;;;;;;;;;;0.10;99.90;;;;;;5012343;28;19925;-70
2022/12/13 11:20:57;;;;;;;;;;;-0.50;99.90;;;;;;5029752;28;19929;-69
2022/12/13 11:23:28;;;;;;;;;;;-0.40;99.90;;;;;;5024763;28;19925;-71
2022/12/13 11:25:58;;;;;;;;;;;-0.30;99.90;;;;;;5025875;28;20336;-71
2022/12/13 11:28:32;;;;;;;;;;;-0.30;99.90;;;;;;5028074;28;19980;-70
2022/12/13 11:31:01;;;;;;;;;;;-0.20;99.90;;;;;;5028729;28;19925;-69
2022/12/13 11:33:30;;;;;;;;;;;-0.20;99.90;;;;;;5045200;28;20309;-71
2022/12/13 11:36:01;;;;;;;;;;;-0.20;99.90;;;;;;5043028;28;19952;-70
2022/12/13 11:38:31;;;;;;;;;;;-0.10;99.90;;;;;;5042951;28;20024;-71
2022/12/13 11:41:06;;;;;;;;;;;0.00;99.90;;;;;;5029751;28;20380;-70
2022/12/13 11:43:37;;;;;;;;;;;0.00;99.90;;;;;;5044732;28;19925;-71
2022/12/13 11:46:09;;;;;;;;;;;0.10;99.90;;;;;;5028383;28;19970;-71
2022/12/13 11:48:35;;;;;;;;;;;0.10;99.90;;;;;;5026875;28;19926;-72
2022/12/13 11:51:00;;;;;;;;;;;0.10;99.90;;;;;;5044213;28;19988;-69
2022/12/13 11:53:29;;;;;;;;;;;0.20;99.90;;;;;;5028133;28;19983;-70
2022/12/13 11:56:18;;;;;;;;;;;0.80;99.90;;;;;;5028633;28;20003;-71
2022/12/13 11:58:53;;;;;;;;;;;0.20;99.90;;;;;;5019082;28;20205;-70
2022/12/13 12:01:21;;;;;;;;;;;0.20;99.90;;;;;;5028584;28;20016;-70
2022/12/13 12:03:48;;;;;;;;;;;0.20;99.90;;;;;;5044587;28;19969;-70
2022/12/13 12:06:20;;;;;;;;;;;0.40;99.90;;;;;;4995290;28;19968;-70
2022/12/13 12:08:49;;;;;;;;;;;0.40;99.90;;;;;;5044441;28;19938;-69
2022/12/13 12:11:33;;;;;;;;;;;0.40;99.90;;;;;;5044736;28;19925;-70
2022/12/13 12:14:25;;;;;;;;;;;0.40;99.90;;;;;;5045016;28;19968;-70
2022/12/13 12:16:52;;;;;;;;;;;0.50;99.90;;;;;;5051486;28;19926;-70
2022/12/13 12:19:38;;;;;;;;;;;0.50;99.90;;;;;;5044815;28;20004;-70
2022/12/13 12:22:07;;;;;;;;;;;0.50;99.90;;;;;;5011393;28;19925;-69
2022/12/13 12:24:32;;;;;;;;;;;0.50;99.90;;;;;;5060564;28;20370;-72
2022/12/13 12:27:17;;;;;;;;;;;0.60;99.90;;;;;;5044477;28;19932;-71
2022/12/13 12:29:45;;;;;;;;;;;0.60;99.90;;;;;;5011446;28;19978;-72
2022/12/13 12:32:19;;;;;;;;;;;0.70;99.90;;;;;;5061676;28;19928;-72
2022/12/13 12:35:01;;;;;;;;;;;0.70;99.90;;;;;;5029114;28;20032;-71
2022/12/13 12:37:51;;;;;;;;;;;0.70;99.90;;;;;;5029887;28;20308;-72
2022/12/13 12:40:35;;;;;;;;;;;0.70;99.90;;;;;;5029452;28;19937;-72
2022/12/13 12:43:17;;;;;;;;;;;0.70;99.90;;;;;;5027842;28;20320;-71
2022/12/13 12:45:51;;;;;;;;;;;0.70;99.90;;;;;;5028554;28;19932;-71
2022/12/13 12:48:29;;;;;;;;;;;0.70;99.90;;;;;;5044951;28;19970;-71
2022/12/13 12:51:01;;;;;;;;;;;0.70;99.90;;;;;;5029169;28;19929;-71
2022/12/13 12:53:36;;;;;;;;;;;0.70;99.90;;;;;;5028249;28;20008;-71
2022/12/13 12:56:18;;;;;;;;;;;0.70;99.90;;;;;;5029014;28;19970;-71
2022/12/13 12:58:49;;;;;;;;;;;0.70;99.90;;;;;;5028795;28;20012;-71
2022/12/13 13:01:17;;;;;;;;;;;0.70;99.90;;;;;;5029223;28;19932;-72
2022/12/13 13:03:44;;;;;;;;;;;0.70;99.90;;;;;;5043970;28;19925;-72
2022/12/13 13:06:19;;;;;;;;;;;0.70;99.90;;;;;;5043758;28;19925;-71
2022/12/13 13:08:48;;;;;;;;;;;0.70;99.90;;;;;;5027683;28;19929;-72
2022/12/13 13:11:14;;;;;;;;;;;0.70;99.90;;;;;;5027804;28;20259;-71
2022/12/13 13:13:48;;;;;;;;;;;1.40;99.90;;;;;;5044076;28;19925;-72
2022/12/13 13:16:26;;;;;;;;;;;0.70;99.90;;;;;;5028346;28;20374;-71
2022/12/13 13:18:55;;;;;;;;;;;0.70;99.90;;;;;;5013219;28;19974;-72
2022/12/13 13:21:30;;;;;;;;;;;0.70;99.90;;;;;;5047820;28;19925;-72
2022/12/13 13:24:05;;;;;;;;;;;0.70;99.90;;;;;;5047349;28;20320;-71
2022/12/13 13:26:31;;;;;;;;;;;0.60;99.90;;;;;;5047521;28;19932;-72
2022/12/13 13:29:16;;;;;;;;;;;0.60;99.90;;;;;;5014060;28;19932;-71
2022/12/13 13:32:11;;;;;;;;;;;0.60;99.90;;;;;;5030755;28;20283;-71
2022/12/13 13:34:41;;;;;;;;;;;0.60;99.90;;;;;;5031017;28;20020;-71
2022/12/13 13:37:19;;;;;;;;;;;0.60;99.90;;;;;;5014606;28;19925;-71
2022/12/13 13:39:57;;;;;;;;;;;0.60;99.90;;;;;;5047040;28;20012;-71
2022/12/13 13:42:24;;;;;;;;;;;0.60;99.90;;;;;;5030472;28;20012;-72
2022/12/13 13:44:50;;;;;;;;;;;0.50;99.90;;;;;;5047419;28;19969;-69
2022/12/13 13:47:27;;;;;;;;;;;0.50;99.90;;;;;;5014239;28;20382;-70
2022/12/13 13:49:59;;;;;;;;;;;0.50;99.90;;;;;;5047674;28;19925;-71
2022/12/13 13:52:42;;;;;;;;;;;0.40;99.90;;;;;;5014154;28;20409;-71
2022/12/13 13:55:26;;;;;;;;;;;0.40;99.90;;;;;;5064156;28;19925;-72
2022/12/13 13:58:11;;;;;;;;;;;0.40;99.90;;;;;;5046691;28;19925;-70
2022/12/13 14:00:43;;;;;;;;;;;0.30;99.90;;;;;;5047222;28;20011;-71
2022/12/13 14:03:27;;;;;;;;;;;0.30;99.90;;;;;;5064031;28;20012;-70
2022/12/13 14:06:10;;;;;;;;;;;0.30;99.90;;;;;;5030072;28;20288;-70
2022/12/13 14:08:35;;;;;;;;;;;0.20;99.90;;;;;;5047312;28;19929;-70
2022/12/13 14:11:20;;;;;;;;;;;0.20;99.90;;;;;;5046452;28;19925;-69
2022/12/13 14:14:04;;;;;;;;;;;0.20;99.90;;;;;;5046913;28;19941;-71
2022/12/13 14:16:49;;;;;;;;;;;0.10;99.90;;;;;;5046824;28;20339;-70
2022/12/13 14:19:17;;;;;;;;;;;0.10;99.90;;;;;;5030770;28;19926;-70
2022/12/13 14:22:01;;;;;;;;;;;0.10;99.90;;;;;;5046723;28;19925;-70
2022/12/13 14:24:46;;;;;;;;;;;0.10;99.90;;;;;;5046664;28;19932;-71
2022/12/13 14:27:11;;;;;;;;;;;0.00;99.90;;;;;;5046573;28;19993;-70
2022/12/13 14:29:40;;;;;;;;;;;0.00;99.90;;;;;;5045384;28;19951;-70
2022/12/13 14:32:16;;;;;;;;;;;0.00;99.90;;;;;;5030835;28;19952;-70
2022/12/13 14:34:43;;;;;;;;;;;-0.10;99.90;;;;;;5046506;28;20413;-69